sensor_id;sensor_type;location;lat;lon;timestamp;pressure;altitude;pressure_sealevel;temperature;humidity
66430;BME280;53242;51.694;10.006;2022-09-09T00:00:32;99026.34;;;16.37;75.12
66430;BME280;53242;51.694;10.006;2022-09-09T00:03:13;99017.91;;;16.46;74.77
66430;BME280;53242;51.694;10.006;2022-09-09T00:05:45;99015.81;;;16.48;74.53
66430;BME280;53242;51.694;10.006;2022-09-09T00:08:19;99011.03;;;16.50;74.35
66430;BME280;53242;51.694;10.006;2022-09-09T00:10:42;99012.13;;;16.49;74.48
66430;BME280;53242;51.694;10.006;2022-09-09T00:16:04;99005.50;;;16.51;74.16
66430;BME280;53242;51.694;10.006;2022-09-09T00:19:01;99005.66;;;16.44;74.05
66430;BME280;53242;51.694;10.006;2022-09-09T00:21:34;99003.72;;;16.40;74.23
66430;BME280;53242;51.694;10.006;2022-09-09T00:23:57;98996.28;;;16.42;74.35
66430;BME280;53242;51.694;10.006;2022-09-09T00:26:42;98997.66;;;16.44;73.98
66430;BME280;53242;51.694;10.006;2022-09-09T00:31:31;98997.72;;;16.50;73.89
66430;BME280;53242;51.694;10.006;2022-09-09T00:33:55;98996.44;;;16.52;73.93
66430;BME280;53242;51.694;10.006;2022-09-09T00:36:23;98998.63;;;16.55;73.78
66430;BME280;53242;51.694;10.006;2022-09-09T00:38:52;99001.59;;;16.59;73.43
66430;BME280;53242;51.694;10.006;2022-09-09T00:54:30;99002.06;;;16.56;73.52
66430;BME280;53242;51.694;10.006;2022-09-09T00:57:23;98993.84;;;16.57;73.32
66430;BME280;53242;51.694;10.006;2022-09-09T00:59:52;98999.66;;;16.54;73.66
66430;BME280;53242;51.694;10.006;2022-09-09T01:02:35;98994.66;;;16.58;73.44
66430;BME280;53242;51.694;10.006;2022-09-09T01:05:10;98988.22;;;16.54;73.53
66430;BME280;53242;51.694;10.006;2022-09-09T01:07:34;99000.63;;;16.48;73.71
66430;BME280;53242;51.694;10.006;2022-09-09T01:09:59;99004.13;;;16.49;73.91
66430;BME280;53242;51.694;10.006;2022-09-09T01:12:42;99005.25;;;16.53;73.51
66430;BME280;53242;51.694;10.006;2022-09-09T01:15:17;99003.31;;;16.48;73.39
66430;BME280;53242;51.694;10.006;2022-09-09T01:28:52;99007.59;;;16.49;73.44
66430;BME280;53242;51.694;10.006;2022-09-09T01:31:20;99004.66;;;16.51;73.50
66430;BME280;53242;51.694;10.006;2022-09-09T01:33:44;99004.19;;;16.54;73.45
66430;BME280;53242;51.694;10.006;2022-09-09T01:36:15;99006.03;;;16.53;73.70
66430;BME280;53242;51.694;10.006;2022-09-09T01:38:46;99005.16;;;16.48;74.13
66430;BME280;53242;51.694;10.006;2022-09-09T01:41:08;99009.47;;;16.49;73.89
66430;BME280;53242;51.694;10.006;2022-09-09T01:43:42;99007.25;;;16.46;73.89
66430;BME280;53242;51.694;10.006;2022-09-09T01:46:04;99009.84;;;16.40;74.13
66430;BME280;53242;51.694;10.006;2022-09-09T01:48:29;99000.50;;;16.38;74.36
66430;BME280;53242;51.694;10.006;2022-09-09T01:51:01;98998.88;;;16.37;74.36
66430;BME280;53242;51.694;10.006;2022-09-09T01:53:24;98998.16;;;16.41;74.36
66430;BME280;53242;51.694;10.006;2022-09-09T01:56:14;99008.66;;;16.31;74.79
66430;BME280;53242;51.694;10.006;2022-09-09T01:59:11;99008.91;;;16.30;74.56
66430;BME280;53242;51.694;10.006;2022-09-09T02:04:11;99004.31;;;16.08;75.55
66430;BME280;53242;51.694;10.006;2022-09-09T02:06:39;99003.53;;;16.07;75.81
66430;BME280;53242;51.694;10.006;2022-09-09T02:09:17;99002.41;;;16.20;75.41
66430;BME280;53242;51.694;10.006;2022-09-09T02:11:43;99007.78;;;16.25;75.16
66430;BME280;53242;51.694;10.006;2022-09-09T02:14:28;99012.19;;;16.37;75.01
66430;BME280;53242;51.694;10.006;2022-09-09T02:17:07;99000.25;;;16.39;74.88
66430;BME280;53242;51.694;10.006;2022-09-09T02:19:55;99007.22;;;16.23;75.43
66430;BME280;53242;51.694;10.006;2022-09-09T02:22:33;99006.44;;;16.23;75.73
66430;BME280;53242;51.694;10.006;2022-09-09T02:24:59;99008.34;;;16.27;75.63
66430;BME280;53242;51.694;10.006;2022-09-09T02:27:25;99006.72;;;16.26;75.65
66430;BME280;53242;51.694;10.006;2022-09-09T02:29:49;99003.25;;;16.26;75.79
66430;BME280;53242;51.694;10.006;2022-09-09T02:32:17;99010.81;;;16.34;75.58
66430;BME280;53242;51.694;10.006;2022-09-09T02:34:48;99002.38;;;16.37;75.52
66430;BME280;53242;51.694;10.006;2022-09-09T02:37:13;99009.53;;;16.37;75.54
66430;BME280;53242;51.694;10.006;2022-09-09T02:39:41;99018.81;;;16.34;75.75
66430;BME280;53242;51.694;10.006;2022-09-09T02:42:07;99014.06;;;16.36;75.85
66430;BME280;53242;51.694;10.006;2022-09-09T02:44:30;99001.72;;;16.30;75.87
66430;BME280;53242;51.694;10.006;2022-09-09T02:50:13;99002.47;;;16.25;75.75
66430;BME280;53242;51.694;10.006;2022-09-09T02:52:50;98998.50;;;16.28;75.89
66430;BME280;53242;51.694;10.006;2022-09-09T02:55:24;98997.28;;;16.36;75.36
66430;BME280;53242;51.694;10.006;2022-09-09T02:57:53;98993.88;;;16.40;75.67
66430;BME280;53242;51.694;10.006;2022-09-09T03:00:26;98988.88;;;16.44;75.70
66430;BME280;53242;51.694;10.006;2022-09-09T03:02:52;99000.25;;;16.39;76.03
66430;BME280;53242;51.694;10.006;2022-09-09T03:05:16;98985.88;;;16.40;76.13
66430;BME280;53242;51.694;10.006;2022-09-09T03:07:39;98989.06;;;16.37;76.19
66430;BME280;53242;51.694;10.006;2022-09-09T03:10:02;98983.78;;;16.42;76.07
66430;BME280;53242;51.694;10.006;2022-09-09T03:12:25;98990.25;;;16.47;75.95
66430;BME280;53242;51.694;10.006;2022-09-09T03:14:48;98988.94;;;16.49;75.82
66430;BME280;53242;51.694;10.006;2022-09-09T03:17:11;98987.41;;;16.53;75.52
66430;BME280;53242;51.694;10.006;2022-09-09T03:19:40;98988.50;;;16.57;75.53
66430;BME280;53242;51.694;10.006;2022-09-09T03:22:04;98995.63;;;16.52;75.54
66430;BME280;53242;51.694;10.006;2022-09-09T03:24:29;98994.91;;;16.56;75.41
66430;BME280;53242;51.694;10.006;2022-09-09T03:26:52;98995.19;;;16.60;75.46
66430;BME280;53242;51.694;10.006;2022-09-09T03:29:14;99000.31;;;16.62;75.44
66430;BME280;53242;51.694;10.006;2022-09-09T03:31:39;99003.19;;;16.60;75.45
66430;BME280;53242;51.694;10.006;2022-09-09T03:34:02;99002.66;;;16.58;75.36
66430;BME280;53242;51.694;10.006;2022-09-09T03:36:28;99012.41;;;16.52;75.19
66430;BME280;53242;51.694;10.006;2022-09-09T03:38:51;99005.16;;;16.48;75.29
66430;BME280;53242;51.694;10.006;2022-09-09T03:41:13;99000.31;;;16.44;75.42
66430;BME280;53242;51.694;10.006;2022-09-09T03:43:36;98993.41;;;16.43;75.33
66430;BME280;53242;51.694;10.006;2022-09-09T03:46:00;98997.19;;;16.48;75.27
66430;BME280;53242;51.694;10.006;2022-09-09T03:48:24;98993.22;;;16.50;75.24
66430;BME280;53242;51.694;10.006;2022-09-09T03:50:53;98998.31;;;16.52;75.12
66430;BME280;53242;51.694;10.006;2022-09-09T03:53:16;98999.34;;;16.51;75.34
66430;BME280;53242;51.694;10.006;2022-09-09T03:55:39;98992.47;;;16.55;75.26
66430;BME280;53242;51.694;10.006;2022-09-09T03:58:04;98991.34;;;16.51;75.34
66430;BME280;53242;51.694;10.006;2022-09-09T04:00:26;98990.56;;;16.50;75.10
66430;BME280;53242;51.694;10.006;2022-09-09T04:02:49;98988.81;;;16.61;74.48
66430;BME280;53242;51.694;10.006;2022-09-09T04:05:13;98987.00;;;16.62;74.86
66430;BME280;53242;51.694;10.006;2022-09-09T04:07:38;98993.28;;;16.55;75.33
66430;BME280;53242;51.694;10.006;2022-09-09T04:10:00;98990.69;;;16.60;74.93
66430;BME280;53242;51.694;10.006;2022-09-09T04:12:25;98987.22;;;16.60;75.16
66430;BME280;53242;51.694;10.006;2022-09-09T04:14:48;98983.19;;;16.57;75.33
66430;BME280;53242;51.694;10.006;2022-09-09T04:17:11;98990.13;;;16.58;75.41
66430;BME280;53242;51.694;10.006;2022-09-09T04:19:33;98987.97;;;16.55;75.32
66430;BME280;53242;51.694;10.006;2022-09-09T04:21:57;98981.34;;;16.58;75.47
66430;BME280;53242;51.694;10.006;2022-09-09T04:24:19;98982.38;;;16.57;75.50
66430;BME280;53242;51.694;10.006;2022-09-09T04:26:44;98977.63;;;16.59;75.03
66430;BME280;53242;51.694;10.006;2022-09-09T04:29:08;98983.50;;;16.61;74.88
66430;BME280;53242;51.694;10.006;2022-09-09T04:31:30;98979.72;;;16.57;74.87
66430;BME280;53242;51.694;10.006;2022-09-09T04:33:53;98976.75;;;16.53;74.84
66430;BME280;53242;51.694;10.006;2022-09-09T04:36:17;98985.78;;;16.52;74.77
66430;BME280;53242;51.694;10.006;2022-09-09T04:38:41;98982.25;;;16.47;74.86
66430;BME280;53242;51.694;10.006;2022-09-09T04:41:05;98984.13;;;16.46;74.64
66430;BME280;53242;51.694;10.006;2022-09-09T04:43:29;98986.53;;;16.48;74.61
66430;BME280;53242;51.694;10.006;2022-09-09T04:45:54;98985.72;;;16.47;74.54
66430;BME280;53242;51.694;10.006;2022-09-09T04:48:20;98981.19;;;16.48;74.80
66430;BME280;53242;51.694;10.006;2022-09-09T04:50:44;98980.31;;;16.42;74.91
66430;BME280;53242;51.694;10.006;2022-09-09T04:53:15;98984.91;;;16.47;74.68
66430;BME280;53242;51.694;10.006;2022-09-09T04:55:38;98980.63;;;16.46;74.68
66430;BME280;53242;51.694;10.006;2022-09-09T04:58:05;98985.47;;;16.49;74.57
66430;BME280;53242;51.694;10.006;2022-09-09T05:00:28;98986.59;;;16.53;74.02
66430;BME280;53242;51.694;10.006;2022-09-09T05:02:54;98988.75;;;16.56;74.16
66430;BME280;53242;51.694;10.006;2022-09-09T05:05:17;98992.78;;;16.58;74.13
66430;BME280;53242;51.694;10.006;2022-09-09T05:07:43;98984.25;;;16.56;74.14
66430;BME280;53242;51.694;10.006;2022-09-09T05:10:05;98993.09;;;16.62;73.69
66430;BME280;53242;51.694;10.006;2022-09-09T05:12:28;98992.53;;;16.60;73.96
66430;BME280;53242;51.694;10.006;2022-09-09T05:14:52;98999.00;;;16.64;73.74
66430;BME280;53242;51.694;10.006;2022-09-09T05:17:14;98997.13;;;16.65;74.19
66430;BME280;53242;51.694;10.006;2022-09-09T05:19:37;99002.72;;;16.63;73.86
66430;BME280;53242;51.694;10.006;2022-09-09T05:21:59;99008.03;;;16.63;73.92
66430;BME280;53242;51.694;10.006;2022-09-09T05:24:30;99002.78;;;16.68;73.76
66430;BME280;53242;51.694;10.006;2022-09-09T05:26:55;99007.13;;;16.74;73.57
66430;BME280;53242;51.694;10.006;2022-09-09T05:29:20;99012.16;;;16.71;73.56
66430;BME280;53242;51.694;10.006;2022-09-09T05:31:43;99003.38;;;16.75;73.58
66430;BME280;53242;51.694;10.006;2022-09-09T05:34:10;99007.94;;;16.75;73.52
66430;BME280;53242;51.694;10.006;2022-09-09T05:36:32;99006.88;;;16.76;73.45
66430;BME280;53242;51.694;10.006;2022-09-09T05:38:55;99016.72;;;16.75;73.31
66430;BME280;53242;51.694;10.006;2022-09-09T05:41:17;99017.84;;;16.80;73.38
66430;BME280;53242;51.694;10.006;2022-09-09T05:43:42;99015.41;;;16.78;73.21
66430;BME280;53242;51.694;10.006;2022-09-09T05:46:09;99021.56;;;16.79;73.27
66430;BME280;53242;51.694;10.006;2022-09-09T05:48:37;99026.31;;;16.76;73.43
66430;BME280;53242;51.694;10.006;2022-09-09T05:51:00;99021.25;;;16.75;73.42
66430;BME280;53242;51.694;10.006;2022-09-09T05:53:24;99022.22;;;16.69;73.53
66430;BME280;53242;51.694;10.006;2022-09-09T05:55:47;99017.88;;;16.63;73.44
66430;BME280;53242;51.694;10.006;2022-09-09T05:58:10;99018.19;;;16.66;73.68
66430;BME280;53242;51.694;10.006;2022-09-09T06:00:33;99020.13;;;16.71;73.49
66430;BME280;53242;51.694;10.006;2022-09-09T06:02:56;99025.47;;;16.71;73.57
66430;BME280;53242;51.694;10.006;2022-09-09T06:05:19;99012.22;;;16.76;73.50
66430;BME280;53242;51.694;10.006;2022-09-09T06:07:42;99014.31;;;16.74;73.29
66430;BME280;53242;51.694;10.006;2022-09-09T06:10:07;99014.06;;;16.75;73.50
66430;BME280;53242;51.694;10.006;2022-09-09T06:12:30;99016.78;;;16.81;73.27
66430;BME280;53242;51.694;10.006;2022-09-09T06:14:53;99022.47;;;16.67;73.70
66430;BME280;53242;51.694;10.006;2022-09-09T06:17:15;99024.09;;;16.68;73.63
66430;BME280;53242;51.694;10.006;2022-09-09T06:19:38;99023.34;;;16.73;73.53
66430;BME280;53242;51.694;10.006;2022-09-09T06:22:00;99023.66;;;16.76;73.56
66430;BME280;53242;51.694;10.006;2022-09-09T06:24:25;99029.56;;;16.79;73.41
66430;BME280;53242;51.694;10.006;2022-09-09T06:26:48;99023.66;;;16.76;73.58
66430;BME280;53242;51.694;10.006;2022-09-09T06:29:22;99023.19;;;16.80;73.61
66430;BME280;53242;51.694;10.006;2022-09-09T06:31:44;99022.63;;;16.77;73.67
66430;BME280;53242;51.694;10.006;2022-09-09T06:34:12;99022.19;;;16.86;73.49
66430;BME280;53242;51.694;10.006;2022-09-09T06:36:38;99020.75;;;16.95;73.34
66430;BME280;53242;51.694;10.006;2022-09-09T06:39:01;99028.50;;;16.97;73.44
66430;BME280;53242;51.694;10.006;2022-09-09T06:41:31;99031.59;;;17.11;72.86
66430;BME280;53242;51.694;10.006;2022-09-09T06:43:54;99033.28;;;17.22;72.78
66430;BME280;53242;51.694;10.006;2022-09-09T06:46:29;99033.78;;;17.41;72.44
66430;BME280;53242;51.694;10.006;2022-09-09T06:48:54;99035.34;;;17.64;71.88
66430;BME280;53242;51.694;10.006;2022-09-09T06:51:19;99036.50;;;17.73;71.40
66430;BME280;53242;51.694;10.006;2022-09-09T06:53:46;99028.91;;;17.60;71.80
66430;BME280;53242;51.694;10.006;2022-09-09T06:58:32;99029.25;;;17.41;71.72
66430;BME280;53242;51.694;10.006;2022-09-09T07:01:06;99023.94;;;17.41;71.63
66430;BME280;53242;51.694;10.006;2022-09-09T07:03:30;99025.09;;;17.51;71.50
66430;BME280;53242;51.694;10.006;2022-09-09T07:05:54;99030.66;;;17.77;71.12
66430;BME280;53242;51.694;10.006;2022-09-09T07:08:18;99020.53;;;18.06;70.31
66430;BME280;53242;51.694;10.006;2022-09-09T07:10:41;99025.25;;;18.31;69.73
66430;BME280;53242;51.694;10.006;2022-09-09T07:13:05;99019.69;;;18.43;69.06
66430;BME280;53242;51.694;10.006;2022-09-09T07:15:29;99028.09;;;18.62;69.04
66430;BME280;53242;51.694;10.006;2022-09-09T07:17:52;99023.91;;;18.77;68.89
66430;BME280;53242;51.694;10.006;2022-09-09T07:20:17;99024.47;;;18.84;68.73
66430;BME280;53242;51.694;10.006;2022-09-09T07:22:40;99028.28;;;18.93;68.47
66430;BME280;53242;51.694;10.006;2022-09-09T07:25:03;99030.16;;;18.93;68.05
66430;BME280;53242;51.694;10.006;2022-09-09T07:27:26;99030.44;;;18.96;68.17
66430;BME280;53242;51.694;10.006;2022-09-09T07:29:49;99039.56;;;19.05;68.33
66430;BME280;53242;51.694;10.006;2022-09-09T07:32:12;99036.94;;;19.21;68.10
66430;BME280;53242;51.694;10.006;2022-09-09T07:34:34;99040.94;;;19.13;67.62
66430;BME280;53242;51.694;10.006;2022-09-09T07:36:58;99040.97;;;19.23;67.67
66430;BME280;53242;51.694;10.006;2022-09-09T07:39:20;99038.59;;;19.32;67.32
66430;BME280;53242;51.694;10.006;2022-09-09T07:41:48;99045.06;;;19.47;67.18
66430;BME280;53242;51.694;10.006;2022-09-09T07:44:16;99033.28;;;19.53;67.39
66430;BME280;53242;51.694;10.006;2022-09-09T07:46:42;99035.72;;;19.60;67.13
66430;BME280;53242;51.694;10.006;2022-09-09T07:49:06;99039.13;;;19.39;67.71
66430;BME280;53242;51.694;10.006;2022-09-09T07:51:33;99042.13;;;19.53;67.73
66430;BME280;53242;51.694;10.006;2022-09-09T07:53:59;99042.94;;;19.49;67.26
66430;BME280;53242;51.694;10.006;2022-09-09T07:56:22;99053.66;;;19.59;66.86
66430;BME280;53242;51.694;10.006;2022-09-09T07:58:46;99052.03;;;19.58;67.06
66430;BME280;53242;51.694;10.006;2022-09-09T08:01:17;99054.19;;;19.77;66.61
66430;BME280;53242;51.694;10.006;2022-09-09T08:03:41;99054.78;;;19.84;66.36
66430;BME280;53242;51.694;10.006;2022-09-09T08:06:05;99053.19;;;19.93;66.18
66430;BME280;53242;51.694;10.006;2022-09-09T08:08:28;99054.78;;;19.99;65.78
66430;BME280;53242;51.694;10.006;2022-09-09T08:10:52;99053.19;;;20.03;65.66
66430;BME280;53242;51.694;10.006;2022-09-09T08:13:15;99061.22;;;20.14;65.53
66430;BME280;53242;51.694;10.006;2022-09-09T08:15:37;99065.50;;;20.10;65.08
66430;BME280;53242;51.694;10.006;2022-09-09T08:18:00;99056.13;;;20.02;65.67
66430;BME280;53242;51.694;10.006;2022-09-09T08:20:26;99058.00;;;20.07;66.00
66430;BME280;53242;51.694;10.006;2022-09-09T08:22:50;99052.41;;;20.03;65.53
66430;BME280;53242;51.694;10.006;2022-09-09T08:25:13;99057.47;;;19.99;65.27
66430;BME280;53242;51.694;10.006;2022-09-09T08:27:35;99055.84;;;19.93;65.67
66430;BME280;53242;51.694;10.006;2022-09-09T08:30:00;99054.19;;;19.71;65.61
66430;BME280;53242;51.694;10.006;2022-09-09T08:32:23;99057.94;;;19.81;65.24
66430;BME280;53242;51.694;10.006;2022-09-09T08:34:46;99055.28;;;19.81;65.50
66430;BME280;53242;51.694;10.006;2022-09-09T08:37:12;99057.41;;;19.68;65.88
66430;BME280;53242;51.694;10.006;2022-09-09T08:39:37;99051.78;;;19.65;66.19
66430;BME280;53242;51.694;10.006;2022-09-09T08:47:55;99070.06;;;20.09;64.91
66430;BME280;53242;51.694;10.006;2022-09-09T08:50:30;99073.56;;;20.20;64.73
66430;BME280;53242;51.694;10.006;2022-09-09T08:55:58;99078.09;;;20.04;65.30
66430;BME280;53242;51.694;10.006;2022-09-09T08:59:02;99078.38;;;20.13;65.39
66430;BME280;53242;51.694;10.006;2022-09-09T09:01:54;99086.41;;;20.13;64.63
66430;BME280;53242;51.694;10.006;2022-09-09T09:05:21;99077.28;;;20.19;64.75
66430;BME280;53242;51.694;10.006;2022-09-09T09:10:50;99087.75;;;20.10;63.84
66430;BME280;53242;51.694;10.006;2022-09-09T09:13:22;99085.59;;;20.12;64.63
66430;BME280;53242;51.694;10.006;2022-09-09T09:15:57;99088.28;;;20.28;64.55
66430;BME280;53242;51.694;10.006;2022-09-09T09:18:22;99082.94;;;20.28;64.33
66430;BME280;53242;51.694;10.006;2022-09-09T09:21:20;99089.63;;;20.20;63.58
66430;BME280;53242;51.694;10.006;2022-09-09T09:24:00;99079.97;;;20.29;63.72
66430;BME280;53242;51.694;10.006;2022-09-09T09:26:35;99089.06;;;20.13;64.41
66430;BME280;53242;51.694;10.006;2022-09-09T09:28:59;99088.81;;;20.09;64.43
66430;BME280;53242;51.694;10.006;2022-09-09T09:31:22;99081.56;;;19.84;64.46
66430;BME280;53242;51.694;10.006;2022-09-09T09:33:56;99087.22;;;19.98;64.21
66430;BME280;53242;51.694;10.006;2022-09-09T09:36:24;99075.69;;;20.23;63.22
66430;BME280;53242;51.694;10.006;2022-09-09T09:39:00;99078.63;;;20.42;62.74
66430;BME280;53242;51.694;10.006;2022-09-09T09:41:35;99065.50;;;20.46;62.49
66430;BME280;53242;51.694;10.006;2022-09-09T09:43:59;99068.16;;;20.56;62.47
66430;BME280;53242;51.694;10.006;2022-09-09T09:46:25;99051.75;;;20.83;62.03
66430;BME280;53242;51.694;10.006;2022-09-09T09:48:58;99057.91;;;20.84;60.85
66430;BME280;53242;51.694;10.006;2022-09-09T09:51:22;99058.09;;;21.08;60.77
66430;BME280;53242;51.694;10.006;2022-09-09T09:53:47;99048.78;;;20.90;60.32
66430;BME280;53242;51.694;10.006;2022-09-09T09:56:16;99056.53;;;20.92;60.85
66430;BME280;53242;51.694;10.006;2022-09-09T09:58:50;99062.16;;;20.95;60.79
66430;BME280;53242;51.694;10.006;2022-09-09T10:01:31;99057.53;;;21.16;60.16
66430;BME280;53242;51.694;10.006;2022-09-09T10:03:59;99063.34;;;21.34;59.88
66430;BME280;53242;51.694;10.006;2022-09-09T10:06:36;99061.81;;;21.23;59.83
66430;BME280;53242;51.694;10.006;2022-09-09T10:09:01;99061.03;;;21.17;60.39
66430;BME280;53242;51.694;10.006;2022-09-09T10:11:44;99055.88;;;21.26;60.16
66430;BME280;53242;51.694;10.006;2022-09-09T10:17:36;99051.25;;;21.87;58.92
66430;BME280;53242;51.694;10.006;2022-09-09T10:22:34;99050.47;;;21.86;57.55
66430;BME280;53242;51.694;10.006;2022-09-09T10:30:18;99049.00;;;21.64;56.53
66430;BME280;53242;51.694;10.006;2022-09-09T10:33:09;99038.53;;;21.63;55.51
66430;BME280;53242;51.694;10.006;2022-09-09T10:35:51;99046.22;;;21.75;56.52
66430;BME280;53242;51.694;10.006;2022-09-09T10:38:28;99042.28;;;21.62;56.01
66430;BME280;53242;51.694;10.006;2022-09-09T10:46:29;99037.16;;;21.65;55.99
66430;BME280;53242;51.694;10.006;2022-09-09T10:54:52;99035.72;;;21.33;54.88
66430;BME280;53242;51.694;10.006;2022-09-09T10:57:38;99035.66;;;21.44;54.10
66430;BME280;53242;51.694;10.006;2022-09-09T11:00:29;99028.34;;;21.94;54.65
66430;BME280;53242;51.694;10.006;2022-09-09T11:02:52;99036.44;;;22.24;53.86
66430;BME280;53242;51.694;10.006;2022-09-09T11:07:59;99025.50;;;22.44;51.67
66430;BME280;53242;51.694;10.006;2022-09-09T11:13:09;99027.09;;;22.75;52.25
66430;BME280;53242;51.694;10.006;2022-09-09T11:15:42;99021.59;;;22.85;50.49
66430;BME280;53242;51.694;10.006;2022-09-09T11:18:31;99018.97;;;22.99;49.96
66430;BME280;53242;51.694;10.006;2022-09-09T11:20:58;99014.66;;;23.22;49.86
66430;BME280;53242;51.694;10.006;2022-09-09T11:23:32;99022.09;;;23.30;48.67
66430;BME280;53242;51.694;10.006;2022-09-09T11:26:01;99015.03;;;23.15;48.60
66430;BME280;53242;51.694;10.006;2022-09-09T11:33:41;99011.44;;;23.58;49.84
66430;BME280;53242;51.694;10.006;2022-09-09T11:41:39;99003.91;;;23.41;47.96
66430;BME280;53242;51.694;10.006;2022-09-09T11:44:11;99016.78;;;23.44;47.91
66430;BME280;53242;51.694;10.006;2022-09-09T11:46:36;99019.41;;;23.30;48.45
66430;BME280;53242;51.694;10.006;2022-09-09T11:49:03;99024.16;;;22.95;47.41
66430;BME280;53242;51.694;10.006;2022-09-09T11:51:27;99017.72;;;22.91;48.20
66430;BME280;53242;51.694;10.006;2022-09-09T11:53:55;99019.97;;;22.84;48.48
66430;BME280;53242;51.694;10.006;2022-09-09T11:56:54;99014.59;;;22.84;47.16
66430;BME280;53242;51.694;10.006;2022-09-09T12:01:44;99022.00;;;22.92;48.77
66430;BME280;53242;51.694;10.006;2022-09-09T12:04:21;99022.66;;;22.84;47.28
66430;BME280;53242;51.694;10.006;2022-09-09T12:06:54;99013.53;;;23.04;47.65
66430;BME280;53242;51.694;10.006;2022-09-09T12:12:29;99007.34;;;23.47;47.22
66430;BME280;53242;51.694;10.006;2022-09-09T12:15:24;99008.13;;;23.28;47.07
66430;BME280;53242;51.694;10.006;2022-09-09T12:17:52;99010.50;;;23.11;47.72
66430;BME280;53242;51.694;10.006;2022-09-09T12:30:29;99013.75;;;24.03;45.84
66430;BME280;53242;51.694;10.006;2022-09-09T12:33:08;99009.03;;;23.76;44.78
66430;BME280;53242;51.694;10.006;2022-09-09T12:35:32;99010.72;;;23.91;45.54
66430;BME280;53242;51.694;10.006;2022-09-09T12:38:00;99012.19;;;24.30;44.99
66430;BME280;53242;51.694;10.006;2022-09-09T12:40:30;99015.06;;;24.20;44.72
66430;BME280;53242;51.694;10.006;2022-09-09T12:42:54;99017.72;;;24.39;44.04
66430;BME280;53242;51.694;10.006;2022-09-09T12:45:24;99009.00;;;24.42;43.46
66430;BME280;53242;51.694;10.006;2022-09-09T12:47:57;99009.19;;;24.32;41.39
66430;BME280;53242;51.694;10.006;2022-09-09T12:50:32;98995.91;;;24.21;40.94
66430;BME280;53242;51.694;10.006;2022-09-09T12:52:57;98987.63;;;24.18;41.18
66430;BME280;53242;51.694;10.006;2022-09-09T12:55:27;98989.22;;;24.19;40.66
66430;BME280;53242;51.694;10.006;2022-09-09T12:57:51;98985.72;;;24.18;40.64
66430;BME280;53242;51.694;10.006;2022-09-09T13:00:16;98992.22;;;24.31;41.48
66430;BME280;53242;51.694;10.006;2022-09-09T13:02:53;98995.31;;;24.24;41.31
66430;BME280;53242;51.694;10.006;2022-09-09T13:07:42;98990.81;;;23.87;41.82
66430;BME280;53242;51.694;10.006;2022-09-09T13:10:05;98986.91;;;23.79;42.34
66430;BME280;53242;51.694;10.006;2022-09-09T13:12:28;98987.56;;;23.71;42.44
66430;BME280;53242;51.694;10.006;2022-09-09T13:14:53;98991.03;;;23.57;43.54
66430;BME280;53242;51.694;10.006;2022-09-09T13:17:24;98991.81;;;23.39;44.10
66430;BME280;53242;51.694;10.006;2022-09-09T13:19:48;98998.66;;;23.31;44.22
66430;BME280;53242;51.694;10.006;2022-09-09T13:22:21;99002.28;;;23.40;44.39
66430;BME280;53242;51.694;10.006;2022-09-09T13:24:44;98996.19;;;23.35;43.94
66430;BME280;53242;51.694;10.006;2022-09-09T13:27:32;98993.88;;;23.28;43.46
66430;BME280;53242;51.694;10.006;2022-09-09T13:29:56;98995.44;;;23.10;43.18
66430;BME280;53242;51.694;10.006;2022-09-09T13:32:19;98988.28;;;23.00;42.77
66430;BME280;53242;51.694;10.006;2022-09-09T13:34:59;98979.63;;;22.84;42.59
66430;BME280;53242;51.694;10.006;2022-09-09T13:37:35;98985.50;;;22.86;43.40
66430;BME280;53242;51.694;10.006;2022-09-09T13:39:58;98982.06;;;22.80;43.69
66430;BME280;53242;51.694;10.006;2022-09-09T13:42:26;98980.31;;;22.71;43.53
66430;BME280;53242;51.694;10.006;2022-09-09T13:44:49;98983.47;;;22.78;43.85
66430;BME280;53242;51.694;10.006;2022-09-09T13:49:37;98982.53;;;23.07;45.06
66430;BME280;53242;51.694;10.006;2022-09-09T13:52:05;98980.56;;;23.18;45.13
66430;BME280;53242;51.694;10.006;2022-09-09T13:54:30;98978.19;;;23.11;45.88
66430;BME280;53242;51.694;10.006;2022-09-09T13:56:53;98982.34;;;23.03;45.81
66430;BME280;53242;51.694;10.006;2022-09-09T13:59:19;98975.09;;;22.79;45.75
66430;BME280;53242;51.694;10.006;2022-09-09T14:01:46;98983.75;;;22.76;46.41
66430;BME280;53242;51.694;10.006;2022-09-09T14:04:09;98972.09;;;22.81;46.12
66430;BME280;53242;51.694;10.006;2022-09-09T14:06:33;98975.91;;;22.99;45.59
66430;BME280;53242;51.694;10.006;2022-09-09T14:09:00;98978.91;;;22.97;44.79
66430;BME280;53242;51.694;10.006;2022-09-09T14:11:22;98977.56;;;23.19;44.66
66430;BME280;53242;51.694;10.006;2022-09-09T14:13:45;98974.34;;;23.17;45.16
66430;BME280;53242;51.694;10.006;2022-09-09T14:16:07;98983.09;;;23.28;45.06
66430;BME280;53242;51.694;10.006;2022-09-09T14:18:30;98979.50;;;23.32;44.20
66430;BME280;53242;51.694;10.006;2022-09-09T14:20:52;98981.03;;;23.01;44.72
66430;BME280;53242;51.694;10.006;2022-09-09T14:23:15;98972.88;;;22.62;44.93
66430;BME280;53242;51.694;10.006;2022-09-09T14:25:42;98979.22;;;22.47;45.04
66430;BME280;53242;51.694;10.006;2022-09-09T14:28:08;98975.63;;;22.28;45.65
66430;BME280;53242;51.694;10.006;2022-09-09T14:30:31;98974.19;;;22.41;44.95
66430;BME280;53242;51.694;10.006;2022-09-09T14:32:53;98973.53;;;22.25;45.35
66430;BME280;53242;51.694;10.006;2022-09-09T14:35:16;98970.78;;;22.30;44.93
66430;BME280;53242;51.694;10.006;2022-09-09T14:37:40;98978.53;;;22.37;45.27
66430;BME280;53242;51.694;10.006;2022-09-09T14:40:03;98965.28;;;22.45;45.50
66430;BME280;53242;51.694;10.006;2022-09-09T14:42:25;98964.81;;;22.62;45.46